sensor_id;sensor_type;location;lat;lon;timestamp;P1;durP1;ratioP1;P2;durP2;ratioP2
23684;SDS011;12020;51.384;6.908;2024-01-15T00:30:35;44.55;;;30.15;;
23684;SDS011;12020;51.384;6.908;2024-01-15T01:25:08;35.65;;;27.30;;
23684;SDS011;12020;51.384;6.908;2024-01-15T01:36:55;36.15;;;27.35;;
23684;SDS011;12020;51.384;6.908;2024-01-15T01:45:18;37.10;;;26.85;;
23684;SDS011;12020;51.384;6.908;2024-01-15T01:47:52;37.92;;;27.77;;
23684;SDS011;12020;51.384;6.908;2024-01-15T01:56:47;38.50;;;28.23;;
23684;SDS011;12020;51.384;6.908;2024-01-15T02:05:36;36.40;;;27.27;;
23684;SDS011;12020;51.384;6.908;2024-01-15T02:15:05;36.42;;;25.38;;
23684;SDS011;12020;51.384;6.908;2024-01-15T02:30:31;38.65;;;27.13;;
23684;SDS011;12020;51.384;6.908;2024-01-15T02:33:03;34.15;;;25.60;;
23684;SDS011;12020;51.384;6.908;2024-01-15T03:12:11;26.05;;;18.73;;
23684;SDS011;12020;51.384;6.908;2024-01-15T03:18:00;23.15;;;16.95;;
23684;SDS011;12020;51.384;6.908;2024-01-15T03:26:30;22.98;;;16.25;;
23684;SDS011;12020;51.384;6.908;2024-01-15T03:32:18;19.98;;;15.38;;
23684;SDS011;12020;51.384;6.908;2024-01-15T03:35:03;21.52;;;16.38;;
23684;SDS011;12020;51.384;6.908;2024-01-15T03:47:08;21.33;;;16.23;;
23684;SDS011;12020;51.384;6.908;2024-01-15T03:52:48;23.80;;;18.38;;
23684;SDS011;12020;51.384;6.908;2024-01-15T04:01:07;24.23;;;18.95;;
23684;SDS011;12020;51.384;6.908;2024-01-15T04:06:28;23.10;;;18.17;;
23684;SDS011;12020;51.384;6.908;2024-01-15T04:15:53;23.35;;;17.63;;
23684;SDS011;12020;51.384;6.908;2024-01-15T04:25:04;20.48;;;16.45;;
23684;SDS011;12020;51.384;6.908;2024-01-15T04:34:41;20.20;;;16.50;;
23684;SDS011;12020;51.384;6.908;2024-01-15T04:37:10;20.50;;;16.77;;
23684;SDS011;12020;51.384;6.908;2024-01-15T04:39:38;22.75;;;16.65;;
23684;SDS011;12020;51.384;6.908;2024-01-15T04:49:03;19.77;;;15.80;;
23684;SDS011;12020;51.384;6.908;2024-01-15T05:00:02;21.00;;;16.40;;
23684;SDS011;12020;51.384;6.908;2024-01-15T05:05:54;19.63;;;16.50;;
23684;SDS011;12020;51.384;6.908;2024-01-15T05:14:16;18.20;;;16.17;;
23684;SDS011;12020;51.384;6.908;2024-01-15T05:16:51;20.13;;;15.75;;
23684;SDS011;12020;51.384;6.908;2024-01-15T05:32:45;17.08;;;14.45;;
23684;SDS011;12020;51.384;6.908;2024-01-15T05:38:41;16.90;;;14.27;;
23684;SDS011;12020;51.384;6.908;2024-01-15T05:47:05;16.80;;;13.27;;
23684;SDS011;12020;51.384;6.908;2024-01-15T05:49:53;18.63;;;13.13;;
23684;SDS011;12020;51.384;6.908;2024-01-15T05:55:55;14.38;;;12.43;;
23684;SDS011;12020;51.384;6.908;2024-01-15T05:58:25;17.42;;;12.43;;
23684;SDS011;12020;51.384;6.908;2024-01-15T06:14:20;13.93;;;11.73;;
23684;SDS011;12020;51.384;6.908;2024-01-15T06:26:28;15.45;;;11.82;;
23684;SDS011;12020;51.384;6.908;2024-01-15T06:29:10;13.10;;;11.52;;
23684;SDS011;12020;51.384;6.908;2024-01-15T06:31:36;16.48;;;11.55;;
23684;SDS011;12020;51.384;6.908;2024-01-15T06:34:04;13.63;;;11.13;;
23684;SDS011;12020;51.384;6.908;2024-01-15T06:36:33;16.00;;;12.00;;
23684;SDS011;12020;51.384;6.908;2024-01-15T06:38:58;15.23;;;12.18;;
23684;SDS011;12020;51.384;6.908;2024-01-15T06:44:47;16.98;;;12.70;;
23684;SDS011;12020;51.384;6.908;2024-01-15T06:47:13;15.18;;;12.10;;
23684;SDS011;12020;51.384;6.908;2024-01-15T06:49:45;15.35;;;11.75;;
23684;SDS011;12020;51.384;6.908;2024-01-15T06:55:47;11.02;;;9.82;;
23684;SDS011;12020;51.384;6.908;2024-01-15T07:05:10;12.20;;;11.00;;
23684;SDS011;12020;51.384;6.908;2024-01-15T07:08:25;13.43;;;11.50;;
23684;SDS011;12020;51.384;6.908;2024-01-15T07:11:03;13.48;;;10.93;;
23684;SDS011;12020;51.384;6.908;2024-01-15T07:13:31;12.70;;;10.40;;
23684;SDS011;12020;51.384;6.908;2024-01-15T07:15:58;13.60;;;10.60;;
23684;SDS011;12020;51.384;6.908;2024-01-15T07:18:26;11.27;;;9.68;;
23684;SDS011;12020;51.384;6.908;2024-01-15T07:20:51;12.02;;;9.30;;
23684;SDS011;12020;51.384;6.908;2024-01-15T07:23:17;10.30;;;8.05;;
23684;SDS011;12020;51.384;6.908;2024-01-15T07:25:43;10.02;;;8.70;;
23684;SDS011;12020;51.384;6.908;2024-01-15T07:28:09;8.60;;;7.75;;
23684;SDS011;12020;51.384;6.908;2024-01-15T07:30:35;8.18;;;6.65;;
23684;SDS011;12020;51.384;6.908;2024-01-15T07:33:05;9.45;;;6.97;;
23684;SDS011;12020;51.384;6.908;2024-01-15T07:35:31;8.63;;;7.43;;
23684;SDS011;12020;51.384;6.908;2024-01-15T07:37:58;9.50;;;7.78;;
23684;SDS011;12020;51.384;6.908;2024-01-15T07:40:24;9.15;;;8.10;;
23684;SDS011;12020;51.384;6.908;2024-01-15T07:42:50;9.38;;;8.38;;
23684;SDS011;12020;51.384;6.908;2024-01-15T07:45:16;9.85;;;8.63;;
23684;SDS011;12020;51.384;6.908;2024-01-15T07:47:43;11.43;;;10.10;;
23684;SDS011;12020;51.384;6.908;2024-01-15T07:50:12;12.18;;;10.55;;
23684;SDS011;12020;51.384;6.908;2024-01-15T07:55:41;13.88;;;11.18;;
23684;SDS011;12020;51.384;6.908;2024-01-15T07:58:06;13.60;;;12.20;;
23684;SDS011;12020;51.384;6.908;2024-01-15T08:00:32;13.97;;;12.17;;
23684;SDS011;12020;51.384;6.908;2024-01-15T08:02:58;14.30;;;12.13;;
23684;SDS011;12020;51.384;6.908;2024-01-15T08:05:23;15.10;;;12.70;;
23684;SDS011;12020;51.384;6.908;2024-01-15T08:07:50;16.52;;;13.02;;
23684;SDS011;12020;51.384;6.908;2024-01-15T08:10:16;15.40;;;13.80;;
23684;SDS011;12020;51.384;6.908;2024-01-15T08:12:41;15.57;;;13.97;;
23684;SDS011;12020;51.384;6.908;2024-01-15T08:15:07;15.63;;;14.07;;
23684;SDS011;12020;51.384;6.908;2024-01-15T08:17:33;15.68;;;13.90;;
23684;SDS011;12020;51.384;6.908;2024-01-15T08:19:58;14.57;;;13.07;;
23684;SDS011;12020;51.384;6.908;2024-01-15T08:22:25;15.07;;;13.57;;
23684;SDS011;12020;51.384;6.908;2024-01-15T08:24:51;15.10;;;12.77;;
23684;SDS011;12020;51.384;6.908;2024-01-15T08:27:17;14.07;;;12.63;;
23684;SDS011;12020;51.384;6.908;2024-01-15T08:29:42;14.13;;;12.73;;
23684;SDS011;12020;51.384;6.908;2024-01-15T08:32:09;15.27;;;13.57;;
23684;SDS011;12020;51.384;6.908;2024-01-15T08:34:39;15.67;;;13.93;;
23684;SDS011;12020;51.384;6.908;2024-01-15T08:37:04;15.70;;;13.90;;
23684;SDS011;12020;51.384;6.908;2024-01-15T08:39:30;15.73;;;14.02;;
23684;SDS011;12020;51.384;6.908;2024-01-15T08:41:56;16.50;;;14.80;;
23684;SDS011;12020;51.384;6.908;2024-01-15T08:44:21;15.00;;;13.60;;
23684;SDS011;12020;51.384;6.908;2024-01-15T08:46:47;15.52;;;14.00;;
23684;SDS011;12020;51.384;6.908;2024-01-15T08:49:12;15.45;;;13.95;;
23684;SDS011;12020;51.384;6.908;2024-01-15T08:51:38;16.70;;;15.00;;
23684;SDS011;12020;51.384;6.908;2024-01-15T08:54:04;15.82;;;14.23;;
23684;SDS011;12020;51.384;6.908;2024-01-15T08:56:30;16.05;;;14.55;;
23684;SDS011;12020;51.384;6.908;2024-01-15T08:58:55;17.63;;;15.83;;
23684;SDS011;12020;51.384;6.908;2024-01-15T09:01:21;17.70;;;15.90;;
23684;SDS011;12020;51.384;6.908;2024-01-15T09:03:49;17.75;;;15.85;;
23684;SDS011;12020;51.384;6.908;2024-01-15T09:06:15;17.15;;;15.45;;
23684;SDS011;12020;51.384;6.908;2024-01-15T09:08:41;12.73;;;11.52;;
23684;SDS011;12020;51.384;6.908;2024-01-15T09:11:07;11.57;;;10.48;;
23684;SDS011;12020;51.384;6.908;2024-01-15T09:34:06;7.80;;;7.10;;
23684;SDS011;12020;51.384;6.908;2024-01-15T09:46:26;10.40;;;9.50;;
23684;SDS011;12020;51.384;6.908;2024-01-15T09:52:24;9.10;;;8.20;;
23684;SDS011;12020;51.384;6.908;2024-01-15T09:58:33;8.00;;;7.20;;
23684;SDS011;12020;51.384;6.908;2024-01-15T10:01:22;7.25;;;6.35;;
23684;SDS011;12020;51.384;6.908;2024-01-15T10:03:49;6.80;;;6.20;;
23684;SDS011;12020;51.384;6.908;2024-01-15T10:06:16;6.63;;;6.03;;
23684;SDS011;12020;51.384;6.908;2024-01-15T10:08:42;6.22;;;5.63;;
23684;SDS011;12020;51.384;6.908;2024-01-15T10:11:28;6.40;;;5.60;;
23684;SDS011;12020;51.384;6.908;2024-01-15T10:13:56;6.57;;;5.90;;
23684;SDS011;12020;51.384;6.908;2024-01-15T10:16:23;7.38;;;6.68;;
23684;SDS011;12020;51.384;6.908;2024-01-15T10:18:49;6.83;;;6.13;;
23684;SDS011;12020;51.384;6.908;2024-01-15T10:21:15;7.18;;;6.47;;
23684;SDS011;12020;51.384;6.908;2024-01-15T10:23:42;7.07;;;6.45;;
23684;SDS011;12020;51.384;6.908;2024-01-15T10:26:08;7.07;;;6.40;;
23684;SDS011;12020;51.384;6.908;2024-01-15T10:28:33;6.93;;;6.22;;
23684;SDS011;12020;51.384;6.908;2024-01-15T10:30:59;7.93;;;7.13;;
23684;SDS011;12020;51.384;6.908;2024-01-15T10:33:26;7.10;;;6.40;;
23684;SDS011;12020;51.384;6.908;2024-01-15T10:35:55;7.47;;;6.50;;
23684;SDS011;12020;51.384;6.908;2024-01-15T10:38:22;7.30;;;6.60;;
23684;SDS011;12020;51.384;6.908;2024-01-15T10:40:56;6.60;;;5.90;;
23684;SDS011;12020;51.384;6.908;2024-01-15T10:43:22;7.07;;;6.05;;
23684;SDS011;12020;51.384;6.908;2024-01-15T10:45:48;7.87;;;7.00;;
23684;SDS011;12020;51.384;6.908;2024-01-15T10:48:16;9.80;;;8.80;;
23684;SDS011;12020;51.384;6.908;2024-01-15T10:50:43;10.10;;;9.10;;
23684;SDS011;12020;51.384;6.908;2024-01-15T10:53:10;9.90;;;8.87;;
23684;SDS011;12020;51.384;6.908;2024-01-15T10:55:37;10.48;;;8.43;;
23684;SDS011;12020;51.384;6.908;2024-01-15T10:58:04;10.57;;;8.20;;
23684;SDS011;12020;51.384;6.908;2024-01-15T11:00:32;9.27;;;8.35;;
23684;SDS011;12020;51.384;6.908;2024-01-15T11:03:00;8.95;;;7.97;;
23684;SDS011;12020;51.384;6.908;2024-01-15T11:05:28;7.97;;;7.15;;
23684;SDS011;12020;51.384;6.908;2024-01-15T11:07:58;7.53;;;6.70;;
23684;SDS011;12020;51.384;6.908;2024-01-15T11:10:43;8.60;;;7.35;;
23684;SDS011;12020;51.384;6.908;2024-01-15T11:16:10;10.30;;;8.80;;
23684;SDS011;12020;51.384;6.908;2024-01-15T11:18:43;9.40;;;8.50;;
23684;SDS011;12020;51.384;6.908;2024-01-15T11:21:24;9.48;;;8.57;;
23684;SDS011;12020;51.384;6.908;2024-01-15T11:23:55;9.77;;;8.57;;
23684;SDS011;12020;51.384;6.908;2024-01-15T11:29:07;8.32;;;7.53;;
23684;SDS011;12020;51.384;6.908;2024-01-15T11:34:09;8.25;;;7.45;;
23684;SDS011;12020;51.384;6.908;2024-01-15T11:42:01;9.15;;;8.25;;
23684;SDS011;12020;51.384;6.908;2024-01-15T11:44:28;10.85;;;8.68;;
23684;SDS011;12020;51.384;6.908;2024-01-15T11:49:26;11.38;;;9.30;;
23684;SDS011;12020;51.384;6.908;2024-01-15T11:52:14;10.50;;;8.73;;
23684;SDS011;12020;51.384;6.908;2024-01-15T11:54:49;10.07;;;8.20;;
23684;SDS011;12020;51.384;6.908;2024-01-15T11:57:51;10.13;;;7.68;;
23684;SDS011;12020;51.384;6.908;2024-01-15T12:00:16;8.20;;;7.35;;
23684;SDS011;12020;51.384;6.908;2024-01-15T12:02:43;9.25;;;7.60;;
23684;SDS011;12020;51.384;6.908;2024-01-15T12:05:11;9.65;;;7.25;;
23684;SDS011;12020;51.384;6.908;2024-01-15T12:07:48;9.07;;;7.90;;
23684;SDS011;12020;51.384;6.908;2024-01-15T12:10:17;10.13;;;7.85;;
23684;SDS011;12020;51.384;6.908;2024-01-15T12:15:34;8.27;;;7.05;;
23684;SDS011;12020;51.384;6.908;2024-01-15T12:18:01;7.65;;;5.93;;
23684;SDS011;12020;51.384;6.908;2024-01-15T12:20:31;7.50;;;6.18;;
23684;SDS011;12020;51.384;6.908;2024-01-15T12:22:57;8.45;;;5.00;;
23684;SDS011;12020;51.384;6.908;2024-01-15T12:25:24;5.80;;;4.57;;
23684;SDS011;12020;51.384;6.908;2024-01-15T12:27:52;8.15;;;4.78;;
23684;SDS011;12020;51.384;6.908;2024-01-15T12:30:20;7.20;;;4.55;;
23684;SDS011;12020;51.384;6.908;2024-01-15T12:32:46;6.50;;;4.30;;
23684;SDS011;12020;51.384;6.908;2024-01-15T12:35:12;5.93;;;3.70;;
23684;SDS011;12020;51.384;6.908;2024-01-15T12:37:39;5.45;;;3.83;;
23684;SDS011;12020;51.384;6.908;2024-01-15T12:40:06;7.22;;;4.13;;
23684;SDS011;12020;51.384;6.908;2024-01-15T12:42:42;6.18;;;4.32;;
23684;SDS011;12020;51.384;6.908;2024-01-15T12:45:10;6.93;;;4.10;;
23684;SDS011;12020;51.384;6.908;2024-01-15T12:47:37;9.00;;;4.60;;
23684;SDS011;12020;51.384;6.908;2024-01-15T12:50:10;6.72;;;4.90;;
23684;SDS011;12020;51.384;6.908;2024-01-15T12:52:37;8.68;;;6.03;;
23684;SDS011;12020;51.384;6.908;2024-01-15T12:55:05;9.65;;;6.45;;
23684;SDS011;12020;51.384;6.908;2024-01-15T12:57:32;8.95;;;6.35;;
23684;SDS011;12020;51.384;6.908;2024-01-15T12:59:59;7.68;;;5.60;;
23684;SDS011;12020;51.384;6.908;2024-01-15T13:02:24;9.27;;;5.70;;
23684;SDS011;12020;51.384;6.908;2024-01-15T13:04:52;10.70;;;6.60;;
23684;SDS011;12020;51.384;6.908;2024-01-15T13:07:19;9.55;;;6.57;;
23684;SDS011;12020;51.384;6.908;2024-01-15T13:09:45;9.60;;;6.07;;
23684;SDS011;12020;51.384;6.908;2024-01-15T13:12:10;8.30;;;6.40;;
23684;SDS011;12020;51.384;6.908;2024-01-15T13:14:36;8.93;;;5.90;;
23684;SDS011;12020;51.384;6.908;2024-01-15T13:17:02;9.43;;;5.60;;
23684;SDS011;12020;51.384;6.908;2024-01-15T13:19:28;6.90;;;5.22;;
23684;SDS011;12020;51.384;6.908;2024-01-15T13:21:54;8.38;;;4.47;;
23684;SDS011;12020;51.384;6.908;2024-01-15T13:24:21;6.75;;;4.40;;
23684;SDS011;12020;51.384;6.908;2024-01-15T13:26:47;7.88;;;4.82;;
23684;SDS011;12020;51.384;6.908;2024-01-15T13:29:13;9.03;;;5.27;;
23684;SDS011;12020;51.384;6.908;2024-01-15T13:31:40;10.18;;;6.10;;
23684;SDS011;12020;51.384;6.908;2024-01-15T13:34:05;6.83;;;5.00;;
23684;SDS011;12020;51.384;6.908;2024-01-15T13:36:32;7.95;;;5.18;;
23684;SDS011;12020;51.384;6.908;2024-01-15T13:38:58;8.07;;;6.07;;
23684;SDS011;12020;51.384;6.908;2024-01-15T13:41:25;7.97;;;6.05;;
23684;SDS011;12020;51.384;6.908;2024-01-15T13:43:53;8.68;;;6.45;;
23684;SDS011;12020;51.384;6.908;2024-01-15T13:46:23;6.63;;;5.07;;
23684;SDS011;12020;51.384;6.908;2024-01-15T13:48:52;7.05;;;5.30;;
23684;SDS011;12020;51.384;6.908;2024-01-15T13:51:21;5.15;;;4.63;;
23684;SDS011;12020;51.384;6.908;2024-01-15T13:53:50;7.65;;;4.90;;
23684;SDS011;12020;51.384;6.908;2024-01-15T13:56:16;6.57;;;5.10;;
23684;SDS011;12020;51.384;6.908;2024-01-15T13:58:43;5.50;;;4.95;;
23684;SDS011;12020;51.384;6.908;2024-01-15T14:01:09;6.83;;;4.67;;
23684;SDS011;12020;51.384;6.908;2024-01-15T14:03:35;5.35;;;4.32;;
23684;SDS011;12020;51.384;6.908;2024-01-15T14:06:01;6.03;;;4.10;;
23684;SDS011;12020;51.384;6.908;2024-01-15T14:08:44;4.47;;;3.70;;
23684;SDS011;12020;51.384;6.908;2024-01-15T14:11:10;3.72;;;2.80;;
23684;SDS011;12020;51.384;6.908;2024-01-15T14:13:37;3.70;;;3.00;;
23684;SDS011;12020;51.384;6.908;2024-01-15T14:16:02;2.97;;;2.42;;
23684;SDS011;12020;51.384;6.908;2024-01-15T14:18:28;3.90;;;2.20;;
23684;SDS011;12020;51.384;6.908;2024-01-15T14:20:54;2.30;;;1.87;;
23684;SDS011;12020;51.384;6.908;2024-01-15T14:23:20;2.87;;;2.00;;
23684;SDS011;12020;51.384;6.908;2024-01-15T14:25:46;2.70;;;2.25;;
23684;SDS011;12020;51.384;6.908;2024-01-15T14:28:12;3.33;;;2.13;;
23684;SDS011;12020;51.384;6.908;2024-01-15T14:30:39;3.80;;;2.50;;
23684;SDS011;12020;51.384;6.908;2024-01-15T14:33:06;3.35;;;2.40;;
23684;SDS011;12020;51.384;6.908;2024-01-15T14:35:31;3.25;;;2.30;;
23684;SDS011;12020;51.384;6.908;2024-01-15T14:37:57;3.28;;;2.38;;
23684;SDS011;12020;51.384;6.908;2024-01-15T14:40:27;2.47;;;2.28;;
23684;SDS011;12020;51.384;6.908;2024-01-15T14:42:52;2.87;;;2.30;;
23684;SDS011;12020;51.384;6.908;2024-01-15T14:45:20;5.13;;;2.50;;
23684;SDS011;12020;51.384;6.908;2024-01-15T14:47:45;2.63;;;2.00;;
23684;SDS011;12020;51.384;6.908;2024-01-15T14:50:12;3.27;;;2.10;;
23684;SDS011;12020;51.384;6.908;2024-01-15T14:52:38;3.03;;;1.95;;
23684;SDS011;12020;51.384;6.908;2024-01-15T14:55:07;2.55;;;1.90;;
23684;SDS011;12020;51.384;6.908;2024-01-15T14:57:33;3.22;;;1.90;;
23684;SDS011;12020;51.384;6.908;2024-01-15T14:59:59;2.30;;;1.70;;
23684;SDS011;12020;51.384;6.908;2024-01-15T15:02:26;4.33;;;2.07;;
23684;SDS011;12020;51.384;6.908;2024-01-15T15:04:54;2.55;;;1.90;;
23684;SDS011;12020;51.384;6.908;2024-01-15T15:07:23;3.37;;;1.93;;
23684;SDS011;12020;51.384;6.908;2024-01-15T15:09:49;2.97;;;2.00;;
23684;SDS011;12020;51.384;6.908;2024-01-15T15:12:16;3.00;;;2.10;;
23684;SDS011;12020;51.384;6.908;2024-01-15T15:14:42;2.95;;;2.20;;
23684;SDS011;12020;51.384;6.908;2024-01-15T15:17:08;4.90;;;2.60;;
23684;SDS011;12020;51.384;6.908;2024-01-15T15:19:34;3.47;;;2.50;;
23684;SDS011;12020;51.384;6.908;2024-01-15T15:22:01;2.70;;;2.30;;
23684;SDS011;12020;51.384;6.908;2024-01-15T15:24:28;2.75;;;2.22;;
23684;SDS011;12020;51.384;6.908;2024-01-15T15:26:55;4.10;;;2.63;;
23684;SDS011;12020;51.384;6.908;2024-01-15T15:29:22;3.97;;;2.77;;
23684;SDS011;12020;51.384;6.908;2024-01-15T15:31:49;3.47;;;2.70;;
23684;SDS011;12020;51.384;6.908;2024-01-15T15:34:17;3.28;;;2.70;;
23684;SDS011;12020;51.384;6.908;2024-01-15T15:36:42;3.05;;;2.72;;
23684;SDS011;12020;51.384;6.908;2024-01-15T15:39:08;4.47;;;2.90;;
23684;SDS011;12020;51.384;6.908;2024-01-15T15:41:34;2.78;;;2.50;;
23684;SDS011;12020;51.384;6.908;2024-01-15T15:44:00;3.90;;;2.50;;
23684;SDS011;12020;51.384;6.908;2024-01-15T15:46:26;2.90;;;2.30;;
23684;SDS011;12020;51.384;6.908;2024-01-15T15:48:57;2.70;;;2.50;;
23684;SDS011;12020;51.384;6.908;2024-01-15T15:51:31;2.65;;;2.45;;
23684;SDS011;12020;51.384;6.908;2024-01-15T15:54:02;3.08;;;2.53;;
23684;SDS011;12020;51.384;6.908;2024-01-15T15:56:35;2.90;;;2.40;;
23684;SDS011;12020;51.384;6.908;2024-01-15T15:59:04;3.50;;;2.40;;
23684;SDS011;12020;51.384;6.908;2024-01-15T16:01:32;2.95;;;2.67;;
23684;SDS011;12020;51.384;6.908;2024-01-15T16:03:58;3.47;;;3.10;;
23684;SDS011;12020;51.384;6.908;2024-01-15T16:06:24;3.58;;;3.28;;
23684;SDS011;12020;51.384;6.908;2024-01-15T16:08:50;3.95;;;3.53;;
23684;SDS011;12020;51.384;6.908;2024-01-15T16:11:16;4.72;;;3.60;;
23684;SDS011;12020;51.384;6.908;2024-01-15T16:13:43;4.57;;;3.70;;
23684;SDS011;12020;51.384;6.908;2024-01-15T16:16:08;5.05;;;3.80;;
23684;SDS011;12020;51.384;6.908;2024-01-15T16:18:34;4.35;;;3.83;;
23684;SDS011;12020;51.384;6.908;2024-01-15T16:21:00;4.88;;;4.05;;
23684;SDS011;12020;51.384;6.908;2024-01-15T16:23:26;4.00;;;3.60;;
23684;SDS011;12020;51.384;6.908;2024-01-15T16:25:53;5.97;;;3.97;;
23684;SDS011;12020;51.384;6.908;2024-01-15T16:28:19;8.60;;;4.40;;
23684;SDS011;12020;51.384;6.908;2024-01-15T16:31:13;8.38;;;5.13;;
23684;SDS011;12020;51.384;6.908;2024-01-15T16:33:39;8.63;;;5.40;;
23684;SDS011;12020;51.384;6.908;2024-01-15T16:36:05;9.43;;;5.67;;
23684;SDS011;12020;51.384;6.908;2024-01-15T16:38:30;10.82;;;5.60;;
23684;SDS011;12020;51.384;6.908;2024-01-15T16:40:57;7.30;;;5.85;;
23684;SDS011;12020;51.384;6.908;2024-01-15T16:43:23;8.90;;;6.20;;
23684;SDS011;12020;51.384;6.908;2024-01-15T16:45:51;8.02;;;5.80;;
23684;SDS011;12020;51.384;6.908;2024-01-15T16:48:22;8.05;;;6.18;;
23684;SDS011;12020;51.384;6.908;2024-01-15T16:50:48;7.50;;;5.50;;
23684;SDS011;12020;51.384;6.908;2024-01-15T16:53:13;7.72;;;5.50;;
23684;SDS011;12020;51.384;6.908;2024-01-15T16:55:47;8.03;;;6.40;;
23684;SDS011;12020;51.384;6.908;2024-01-15T16:58:14;8.07;;;6.15;;
23684;SDS011;12020;51.384;6.908;2024-01-15T17:00:41;8.07;;;6.85;;
23684;SDS011;12020;51.384;6.908;2024-01-15T17:03:12;7.40;;;6.55;;
23684;SDS011;12020;51.384;6.908;2024-01-15T17:05:39;9.07;;;7.70;;
23684;SDS011;12020;51.384;6.908;2024-01-15T17:08:05;9.85;;;8.23;;
23684;SDS011;12020;51.384;6.908;2024-01-15T17:10:31;8.70;;;7.90;;
23684;SDS011;12020;51.384;6.908;2024-01-15T17:12:58;9.60;;;8.20;;
23684;SDS011;12020;51.384;6.908;2024-01-15T17:15:28;8.40;;;7.60;;
23684;SDS011;12020;51.384;6.908;2024-01-15T17:17:54;9.02;;;7.60;;
23684;SDS011;12020;51.384;6.908;2024-01-15T17:20:20;8.80;;;6.82;;
23684;SDS011;12020;51.384;6.908;2024-01-15T17:22:46;8.98;;;6.80;;
23684;SDS011;12020;51.384;6.908;2024-01-15T17:25:12;9.07;;;6.97;;
23684;SDS011;12020;51.384;6.908;2024-01-15T17:27:37;8.13;;;6.70;;
23684;SDS011;12020;51.384;6.908;2024-01-15T17:33:13;10.20;;;6.82;;
23684;SDS011;12020;51.384;6.908;2024-01-15T17:38:36;8.52;;;6.43;;
23684;SDS011;12020;51.384;6.908;2024-01-15T17:41:01;7.67;;;6.60;;
23684;SDS011;12020;51.384;6.908;2024-01-15T17:43:27;9.23;;;6.57;;
23684;SDS011;12020;51.384;6.908;2024-01-15T17:45:53;8.90;;;6.40;;
23684;SDS011;12020;51.384;6.908;2024-01-15T17:48:20;9.15;;;6.10;;
23684;SDS011;12020;51.384;6.908;2024-01-15T17:50:46;9.45;;;6.30;;
23684;SDS011;12020;51.384;6.908;2024-01-15T17:53:12;9.80;;;5.90;;
23684;SDS011;12020;51.384;6.908;2024-01-15T17:55:41;9.75;;;5.80;;
23684;SDS011;12020;51.384;6.908;2024-01-15T17:58:08;11.05;;;5.85;;
23684;SDS011;12020;51.384;6.908;2024-01-15T18:00:34;7.55;;;5.32;;
23684;SDS011;12020;51.384;6.908;2024-01-15T18:02:59;10.70;;;5.70;;
23684;SDS011;12020;51.384;6.908;2024-01-15T18:08:51;9.48;;;6.47;;
23684;SDS011;12020;51.384;6.908;2024-01-15T18:35:53;9.05;;;5.50;;
23684;SDS011;12020;51.384;6.908;2024-01-15T18:41:44;9.40;;;5.15;;
23684;SDS011;12020;51.384;6.908;2024-01-15T18:44:10;9.07;;;5.07;;
23684;SDS011;12020;51.384;6.908;2024-01-15T18:46:39;8.32;;;5.10;;
23684;SDS011;12020;51.384;6.908;2024-01-15T18:59:15;10.35;;;6.30;;
23684;SDS011;12020;51.384;6.908;2024-01-15T19:15:36;8.15;;;4.93;;
23684;SDS011;12020;51.384;6.908;2024-01-15T19:18:03;8.55;;;4.60;;
23684;SDS011;12020;51.384;6.908;2024-01-15T19:24:30;7.57;;;4.43;;
23684;SDS011;12020;51.384;6.908;2024-01-15T19:27:07;7.47;;;4.25;;
23684;SDS011;12020;51.384;6.908;2024-01-15T19:53:05;8.80;;;5.20;;
23684;SDS011;12020;51.384;6.908;2024-01-15T19:56:15;10.38;;;5.05;;
23684;SDS011;12020;51.384;6.908;2024-01-15T20:04:49;11.00;;;4.95;;
23684;SDS011;12020;51.384;6.908;2024-01-15T20:10:18;11.68;;;5.18;;
23684;SDS011;12020;51.384;6.908;2024-01-15T20:12:45;8.25;;;5.03;;
23684;SDS011;12020;51.384;6.908;2024-01-15T20:18:38;13.43;;;6.85;;
23684;SDS011;12020;51.384;6.908;2024-01-15T20:24:00;11.02;;;7.05;;
23684;SDS011;12020;51.384;6.908;2024-01-15T20:29:49;11.13;;;7.03;;
23684;SDS011;12020;51.384;6.908;2024-01-15T20:35:36;13.70;;;7.22;;
23684;SDS011;12020;51.384;6.908;2024-01-15T20:38:02;12.50;;;7.22;;
23684;SDS011;12020;51.384;6.908;2024-01-15T20:40:37;11.57;;;6.63;;
23684;SDS011;12020;51.384;6.908;2024-01-15T20:43:04;10.68;;;7.05;;
23684;SDS011;12020;51.384;6.908;2024-01-15T20:45:40;12.23;;;7.78;;
23684;SDS011;12020;51.384;6.908;2024-01-15T20:51:02;9.30;;;7.10;;
23684;SDS011;12020;51.384;6.908;2024-01-15T20:53:28;11.00;;;7.25;;
23684;SDS011;12020;51.384;6.908;2024-01-15T20:56:29;11.07;;;6.60;;
23684;SDS011;12020;51.384;6.908;2024-01-15T21:01:46;13.75;;;7.30;;
23684;SDS011;12020;51.384;6.908;2024-01-15T21:07:41;14.48;;;9.13;;
23684;SDS011;12020;51.384;6.908;2024-01-15T21:25:45;13.45;;;9.98;;
23684;SDS011;12020;51.384;6.908;2024-01-15T21:28:16;13.57;;;10.15;;
23684;SDS011;12020;51.384;6.908;2024-01-15T21:30:55;13.18;;;10.13;;
23684;SDS011;12020;51.384;6.908;2024-01-15T21:33:22;13.82;;;9.45;;
23684;SDS011;12020;51.384;6.908;2024-01-15T21:35:56;16.02;;;9.68;;
23684;SDS011;12020;51.384;6.908;2024-01-15T21:38:35;14.57;;;10.10;;
23684;SDS011;12020;51.384;6.908;2024-01-15T21:41:02;14.68;;;10.27;;
23684;SDS011;12020;51.384;6.908;2024-01-15T21:43:35;12.57;;;8.95;;
23684;SDS011;12020;51.384;6.908;2024-01-15T21:46:03;14.45;;;9.35;;
23684;SDS011;12020;51.384;6.908;2024-01-15T21:48:32;11.48;;;8.20;;
23684;SDS011;12020;51.384;6.908;2024-01-15T22:00:22;11.80;;;7.68;;
23684;SDS011;12020;51.384;6.908;2024-01-15T22:02:54;10.45;;;8.18;;
23684;SDS011;12020;51.384;6.908;2024-01-15T22:07:54;10.27;;;8.18;;
23684;SDS011;12020;51.384;6.908;2024-01-15T22:10:31;13.65;;;8.27;;
23684;SDS011;12020;51.384;6.908;2024-01-15T22:13:12;13.20;;;9.07;;
23684;SDS011;12020;51.384;6.908;2024-01-15T22:15:41;13.57;;;9.38;;
23684;SDS011;12020;51.384;6.908;2024-01-15T22:18:08;15.20;;;10.50;;
23684;SDS011;12020;51.384;6.908;2024-01-15T22:20:35;15.80;;;11.25;;
23684;SDS011;12020;51.384;6.908;2024-01-15T22:23:02;16.77;;;14.40;;
23684;SDS011;12020;51.384;6.908;2024-01-15T22:25:28;19.17;;;14.43;;
23684;SDS011;12020;51.384;6.908;2024-01-15T22:27:53;16.58;;;14.77;;
23684;SDS011;12020;51.384;6.908;2024-01-15T22:30:19;17.30;;;13.53;;
23684;SDS011;12020;51.384;6.908;2024-01-15T22:32:44;15.83;;;12.97;;
23684;SDS011;12020;51.384;6.908;2024-01-15T22:35:10;15.00;;;12.47;;
23684;SDS011;12020;51.384;6.908;2024-01-15T22:37:36;15.30;;;12.53;;
23684;SDS011;12020;51.384;6.908;2024-01-15T22:42:53;14.37;;;11.53;;
23684;SDS011;12020;51.384;6.908;2024-01-15T22:45:19;13.27;;;11.13;;
23684;SDS011;12020;51.384;6.908;2024-01-15T22:47:47;14.38;;;10.60;;
23684;SDS011;12020;51.384;6.908;2024-01-15T22:55:41;14.35;;;10.52;;
23684;SDS011;12020;51.384;6.908;2024-01-15T22:58:07;14.45;;;11.13;;
23684;SDS011;12020;51.384;6.908;2024-01-15T23:00:36;13.10;;;10.20;;
23684;SDS011;12020;51.384;6.908;2024-01-15T23:03:10;13.95;;;11.25;;
23684;SDS011;12020;51.384;6.908;2024-01-15T23:05:40;14.70;;;10.98;;
23684;SDS011;12020;51.384;6.908;2024-01-15T23:08:21;13.25;;;11.10;;
23684;SDS011;12020;51.384;6.908;2024-01-15T23:11:00;16.23;;;12.00;;
23684;SDS011;12020;51.384;6.908;2024-01-15T23:13:34;14.30;;;11.57;;
23684;SDS011;12020;51.384;6.908;2024-01-15T23:19:23;11.57;;;9.70;;
23684;SDS011;12020;51.384;6.908;2024-01-15T23:21:52;13.20;;;9.20;;
23684;SDS011;12020;51.384;6.908;2024-01-15T23:27:30;11.53;;;9.27;;
23684;SDS011;12020;51.384;6.908;2024-01-15T23:30:00;12.25;;;9.10;;
23684;SDS011;12020;51.384;6.908;2024-01-15T23:32:29;12.05;;;8.48;;
23684;SDS011;12020;51.384;6.908;2024-01-15T23:34:56;12.52;;;8.73;;
23684;SDS011;12020;51.384;6.908;2024-01-15T23:43:32;11.00;;;8.48;;